createdAt,value
2019-01-05T00:00:20.558Z,99.99
2019-01-05T00:01:20.546Z,99.99
2019-01-05T00:02:20.535Z,99.99
2019-01-05T00:03:20.522Z,99.99
2019-01-05T00:04:20.513Z,99.99
2019-01-05T00:05:20.499Z,99.99
2019-01-05T00:06:20.491Z,99.99
2019-01-05T00:07:20.482Z,99.99
2019-01-05T00:08:20.474Z,99.99
2019-01-05T00:09:20.470Z,99.99
2019-01-05T00:10:20.455Z,99.99
2019-01-05T00:11:20.447Z,99.99
2019-01-05T00:12:20.431Z,99.99
2019-01-05T00:13:20.422Z,99.99
2019-01-05T00:14:20.409Z,99.99
2019-01-05T00:15:20.396Z,99.99
2019-01-05T00:16:20.384Z,99.99
2019-01-05T00:17:20.369Z,99.99
2019-01-05T00:18:20.358Z,99.99
2019-01-05T00:19:20.347Z,99.99
2019-01-05T00:20:20.337Z,99.99
2019-01-05T00:21:20.326Z,99.99
2019-01-05T00:22:20.318Z,99.99
2019-01-05T00:23:20.304Z,99.99
2019-01-05T00:24:20.295Z,99.99
2019-01-05T00:25:20.286Z,99.99
2019-01-05T00:26:20.273Z,99.99
2019-01-05T00:27:20.266Z,99.99
2019-01-05T00:28:20.259Z,99.99
2019-01-05T00:29:20.242Z,99.99
2019-01-05T00:30:20.229Z,99.99
2019-01-05T00:31:20.218Z,99.99
2019-01-05T00:32:20.211Z,99.99
2019-01-05T00:33:20.197Z,99.99
2019-01-05T00:34:20.187Z,99.99
2019-01-05T00:35:20.194Z,99.99
2019-01-05T00:36:20.169Z,99.99
2019-01-05T00:37:20.154Z,99.99
2019-01-05T00:38:20.146Z,99.99
2019-01-05T00:39:20.135Z,99.99
2019-01-05T00:40:20.123Z,99.99
2019-01-05T00:41:20.112Z,99.99
2019-01-05T00:42:20.103Z,99.99
2019-01-05T00:43:20.090Z,99.99
2019-01-05T00:44:20.079Z,99.99
2019-01-05T00:45:20.074Z,99.99
2019-01-05T00:46:20.066Z,99.99
2019-01-05T00:47:20.048Z,99.99
2019-01-05T00:48:20.037Z,99.99
2019-01-05T00:49:20.027Z,99.99
2019-01-05T00:50:20.016Z,99.99
2019-01-05T00:51:20.005Z,99.99
2019-01-05T00:52:19.995Z,99.99
2019-01-05T00:53:19.983Z,99.99
2019-01-05T00:54:19.972Z,99.99
2019-01-05T00:55:19.966Z,99.99
2019-01-05T00:56:19.951Z,99.99
2019-01-05T00:57:19.945Z,99.99
2019-01-05T00:58:19.930Z,99.99
2019-01-05T00:59:19.920Z,99.99
2019-01-05T01:00:19.908Z,99.99
2019-01-05T01:01:19.901Z,99.99
2019-01-05T01:02:19.889Z,99.99
2019-01-05T01:03:19.877Z,99.99
2019-01-05T01:04:19.868Z,99.99
2019-01-05T01:05:19.856Z,99.99
2019-01-05T01:06:19.847Z,99.99
2019-01-05T01:07:19.848Z,99.99
2019-01-05T01:08:19.828Z,99.99
2019-01-05T01:09:19.818Z,99.99
2019-01-05T01:10:19.806Z,99.99
2019-01-05T01:11:19.791Z,99.99
2019-01-05T01:12:19.784Z,99.99
2019-01-05T01:13:19.773Z,99.99
2019-01-05T01:14:19.759Z,99.99
2019-01-05T01:15:19.749Z,99.99
2019-01-05T01:16:19.748Z,99.99
2019-01-05T01:17:19.735Z,99.99
2019-01-05T01:18:19.716Z,99.99
2019-01-05T01:19:19.705Z,99.99
2019-01-05T01:20:19.698Z,99.99
2019-01-05T01:21:19.685Z,99.99
2019-01-05T01:22:19.673Z,99.99
2019-01-05T01:23:19.664Z,99.99
2019-01-05T01:24:19.658Z,99.99
2019-01-05T01:25:19.643Z,99.99
2019-01-05T01:26:19.631Z,99.99
2019-01-05T01:27:19.621Z,99.99
2019-01-05T01:28:19.612Z,99.99
2019-01-05T01:29:19.599Z,99.99
2019-01-05T01:30:19.588Z,99.99
2019-01-05T01:31:19.578Z,99.99
2019-01-05T01:32:19.567Z,99.99
2019-01-05T01:33:19.558Z,99.99
2019-01-05T01:34:19.547Z,99.99
2019-01-05T01:35:19.536Z,99.99
2019-01-05T01:36:19.524Z,99.99
2019-01-05T01:37:19.518Z,99.99
2019-01-05T01:38:19.503Z,99.99
2019-01-05T01:39:19.490Z,99.99
2019-01-05T01:40:19.481Z,99.99
2019-01-05T01:41:19.470Z,99.99
2019-01-05T01:42:19.462Z,99.99
2019-01-05T01:43:19.447Z,99.99
2019-01-05T01:44:19.440Z,99.99
2019-01-05T01:45:19.427Z,99.99
2019-01-05T01:46:19.416Z,99.99
2019-01-05T01:47:19.415Z,99.99
2019-01-05T01:48:19.394Z,99.99
2019-01-05T01:49:19.384Z,99.99
2019-01-05T01:50:19.378Z,99.99
2019-01-05T01:51:19.362Z,99.99
2019-01-05T01:52:19.353Z,99.99
2019-01-05T01:53:19.342Z,99.99
2019-01-05T01:54:19.336Z,99.99
2019-01-05T01:55:19.322Z,99.99
2019-01-05T01:56:19.309Z,99.99
2019-01-05T01:57:19.298Z,99.99
2019-01-05T01:58:19.287Z,99.99
2019-01-05T01:59:19.277Z,99.99
2019-01-05T02:00:19.267Z,99.99
2019-01-05T02:01:19.256Z,99.99
2019-01-05T02:02:19.256Z,99.99
2019-01-05T02:03:19.234Z,99.99
2019-01-05T02:04:19.229Z,99.99
2019-01-05T02:05:19.212Z,99.99
2019-01-05T02:06:19.203Z,99.99
2019-01-05T02:07:19.191Z,99.99
2019-01-05T02:08:19.180Z,99.99
2019-01-05T02:09:19.171Z,99.99
2019-01-05T02:10:19.159Z,99.99
2019-01-05T02:11:19.150Z,99.99
2019-01-05T02:12:19.145Z,99.99
2019-01-05T02:13:19.127Z,99.99
2019-01-05T02:14:19.117Z,99.99
2019-01-05T02:15:19.108Z,99.99
2019-01-05T02:16:19.097Z,99.99
2019-01-05T02:17:19.085Z,99.99
2019-01-05T02:18:19.073Z,99.99
2019-01-05T02:19:19.062Z,99.99
2019-01-05T02:20:19.052Z,99.99
2019-01-05T02:21:19.040Z,99.99
2019-01-05T02:22:19.031Z,99.99
2019-01-05T02:23:19.021Z,99.99
2019-01-05T02:24:19.010Z,99.99
2019-01-05T02:25:19.001Z,99.99
2019-01-05T02:26:18.989Z,99.99
2019-01-05T02:27:18.977Z,99.99
2019-01-05T02:28:18.966Z,99.99
2019-01-05T02:29:18.955Z,99.99
2019-01-05T02:30:18.947Z,99.99
2019-01-05T02:31:18.943Z,99.99
2019-01-05T02:32:18.954Z,99.99
2019-01-05T02:33:18.918Z,99.99
2019-01-05T02:34:18.911Z,99.99
2019-01-05T02:35:18.921Z,99.99
2019-01-05T02:36:18.885Z,99.99
2019-01-05T02:37:18.870Z,99.99
2019-01-05T02:38:18.864Z,99.99
2019-01-05T02:39:18.854Z,99.99
2019-01-05T02:40:18.840Z,99.99
2019-01-05T02:41:18.827Z,99.99
2019-01-05T02:42:18.817Z,99.99
2019-01-05T02:43:18.812Z,99.99
2019-01-05T02:44:18.796Z,99.99
2019-01-05T02:45:18.793Z,99.99
2019-01-05T02:46:18.774Z,99.99
2019-01-05T02:47:18.765Z,99.99
2019-01-05T02:48:18.753Z,99.99
2019-01-05T02:49:18.743Z,99.99
2019-01-05T02:50:18.732Z,99.99
2019-01-05T02:51:18.720Z,99.99
2019-01-05T02:52:18.712Z,99.99
2019-01-05T02:53:18.699Z,99.99
2019-01-05T02:54:18.767Z,99.99
2019-01-05T02:55:18.679Z,99.99
2019-01-05T02:56:18.672Z,99.99
2019-01-05T02:57:18.659Z,99.99
2019-01-05T02:58:18.646Z,99.99
2019-01-05T02:59:18.640Z,99.99
2019-01-05T03:00:18.625Z,99.99
2019-01-05T03:01:18.615Z,99.99
2019-01-05T03:02:18.602Z,99.99
2019-01-05T03:03:18.592Z,99.99
2019-01-05T03:04:18.581Z,99.99
2019-01-05T03:05:18.573Z,99.99
2019-01-05T03:06:18.564Z,99.99
2019-01-05T03:07:18.550Z,99.99
2019-01-05T03:08:18.545Z,99.99
2019-01-05T03:09:18.530Z,99.99
2019-01-05T03:10:18.516Z,99.99
2019-01-05T03:11:18.506Z,99.99
2019-01-05T03:12:18.497Z,99.99
2019-01-05T03:13:18.486Z,99.99
2019-01-05T03:14:18.478Z,99.99
2019-01-05T03:15:18.470Z,99.99
2019-01-05T03:16:18.453Z,99.99
2019-01-05T03:17:18.445Z,99.99
2019-01-05T03:18:18.442Z,99.99
2019-01-05T03:19:18.422Z,99.99
2019-01-05T03:20:18.410Z,99.99
2019-01-05T03:21:18.403Z,99.99
2019-01-05T03:22:18.391Z,99.99
2019-01-05T03:23:18.389Z,99.99
2019-01-05T03:24:18.367Z,99.99
2019-01-05T03:25:18.362Z,99.99
2019-01-05T03:26:18.347Z,99.99
2019-01-05T03:27:18.336Z,99.99
2019-01-05T03:28:18.325Z,99.99
2019-01-05T03:29:18.314Z,99.99
2019-01-05T03:30:18.319Z,99.99
2019-01-05T03:31:18.296Z,99.99
2019-01-05T03:32:18.297Z,99.99
2019-01-05T03:33:18.274Z,99.99
2019-01-05T03:34:18.260Z,99.99
2019-01-05T03:35:18.251Z,99.99
2019-01-05T03:36:18.240Z,99.99
2019-01-05T03:37:18.230Z,99.99
2019-01-05T03:38:18.218Z,99.99
2019-01-05T03:39:18.210Z,99.99
2019-01-05T03:40:18.197Z,99.99
2019-01-05T03:41:18.189Z,99.99
2019-01-05T03:42:18.176Z,99.99
2019-01-05T03:43:18.170Z,99.99
2019-01-05T03:44:18.156Z,99.99
2019-01-05T03:45:18.146Z,99.99
2019-01-05T03:46:18.134Z,99.99
2019-01-05T03:47:18.122Z,99.99
2019-01-05T03:48:18.115Z,99.99
2019-01-05T03:49:18.102Z,99.99
2019-01-05T03:50:18.092Z,99.99
2019-01-05T03:51:18.088Z,99.99
2019-01-05T03:52:18.068Z,99.99
2019-01-05T03:53:18.061Z,99.99
2019-01-05T03:54:18.048Z,99.99
2019-01-05T03:55:18.036Z,99.99
2019-01-05T03:56:18.026Z,99.99
2019-01-05T03:57:18.016Z,99.99
2019-01-05T03:58:18.005Z,99.99
2019-01-05T03:59:17.996Z,99.99
2019-01-05T04:00:17.985Z,99.99
2019-01-05T04:01:17.974Z,99.99
2019-01-05T04:02:17.962Z,99.99
2019-01-05T04:03:17.955Z,99.99
2019-01-05T04:04:17.946Z,99.99
2019-01-05T04:05:17.931Z,99.99
2019-01-05T04:06:17.919Z,99.99
2019-01-05T04:07:17.910Z,99.99
2019-01-05T04:08:17.898Z,99.99
2019-01-05T04:09:17.890Z,99.99
2019-01-05T04:10:17.880Z,99.99
2019-01-05T04:11:17.870Z,99.99
2019-01-05T04:12:17.854Z,99.99
2019-01-05T04:13:17.844Z,99.99
2019-01-05T04:14:17.835Z,99.99
2019-01-05T04:15:17.829Z,99.99
2019-01-05T04:16:17.815Z,99.99
2019-01-05T04:17:17.804Z,99.99
2019-01-05T04:18:17.793Z,99.99
2019-01-05T04:19:17.780Z,99.99
2019-01-05T04:20:17.773Z,99.99
2019-01-05T04:21:17.761Z,99.99
2019-01-05T04:22:17.747Z,99.99
2019-01-05T04:23:17.739Z,99.99
2019-01-05T04:24:17.728Z,99.99
2019-01-05T04:25:17.717Z,99.99
2019-01-05T04:26:17.711Z,99.99
2019-01-05T04:27:17.697Z,99.99
2019-01-05T04:28:17.684Z,99.99
2019-01-05T04:29:17.681Z,99.99
2019-01-05T04:30:17.664Z,99.99
2019-01-05T04:31:17.653Z,99.99
2019-01-05T04:32:17.645Z,99.99
2019-01-05T04:33:17.632Z,99.99
2019-01-05T04:34:17.619Z,99.99
2019-01-05T04:35:17.609Z,99.99
2019-01-05T04:36:17.602Z,99.99
2019-01-05T04:37:17.588Z,99.99
2019-01-05T04:38:17.581Z,99.99
2019-01-05T04:39:17.568Z,99.99
2019-01-05T04:40:17.555Z,99.99
2019-01-05T04:41:17.546Z,99.99
2019-01-05T04:42:17.539Z,99.99
2019-01-05T04:43:17.523Z,99.99
2019-01-05T04:44:17.521Z,99.99
2019-01-05T04:45:17.505Z,99.99
2019-01-05T04:46:17.491Z,99.99
2019-01-05T04:47:17.481Z,99.99
2019-01-05T04:48:17.470Z,99.99
2019-01-05T04:49:17.460Z,99.99
2019-01-05T04:50:17.454Z,99.99
2019-01-05T04:51:17.437Z,99.99
2019-01-05T04:52:17.428Z,99.99
2019-01-05T04:53:17.416Z,99.99
2019-01-05T04:54:17.406Z,99.99
2019-01-05T04:55:17.394Z,99.99
2019-01-05T04:56:17.385Z,99.99
2019-01-05T04:57:17.375Z,99.99
2019-01-05T04:58:17.369Z,99.99
2019-01-05T04:59:17.354Z,99.99
2019-01-05T05:00:17.344Z,99.99
2019-01-05T05:01:17.331Z,99.99
2019-01-05T05:02:17.322Z,99.99
2019-01-05T05:03:17.312Z,99.99
2019-01-05T05:04:17.300Z,99.99
2019-01-05T05:05:17.295Z,99.99
2019-01-05T05:06:17.279Z,99.99
2019-01-05T05:07:17.287Z,99.99
2019-01-05T05:08:17.258Z,99.99
2019-01-05T05:09:17.245Z,99.99
2019-01-05T05:10:17.235Z,99.99
2019-01-05T05:11:17.225Z,99.99
2019-01-05T05:12:17.215Z,99.99
2019-01-05T05:13:17.205Z,99.99
2019-01-05T05:14:17.196Z,99.99
2019-01-05T05:15:17.182Z,99.99
2019-01-05T05:16:17.171Z,99.99
2019-01-05T05:17:17.160Z,99.99
2019-01-05T05:18:17.153Z,99.99
2019-01-05T05:19:17.141Z,99.99
2019-01-05T05:20:17.130Z,99.99
2019-01-05T05:21:17.119Z,99.99
2019-01-05T05:22:17.107Z,99.99
2019-01-05T05:23:17.097Z,99.99
2019-01-05T05:24:17.088Z,99.99
2019-01-05T05:25:17.084Z,99.99
2019-01-05T05:26:17.066Z,99.99
2019-01-05T05:27:17.054Z,99.99
2019-01-05T05:28:17.043Z,99.99
2019-01-05T05:29:17.037Z,99.99
2019-01-05T05:30:17.022Z,99.99
2019-01-05T05:31:17.015Z,99.99
2019-01-05T05:32:16.999Z,99.99
2019-01-05T05:33:16.994Z,99.99
2019-01-05T05:34:16.979Z,99.99
2019-01-05T05:35:16.973Z,99.99
2019-01-05T05:36:16.962Z,99.99
2019-01-05T05:37:16.981Z,99.99
2019-01-05T05:38:16.939Z,99.99
2019-01-05T05:39:16.925Z,99.99
2019-01-05T05:40:16.916Z,99.99
2019-01-05T05:41:16.904Z,99.99
2019-01-05T05:42:16.895Z,99.99
2019-01-05T05:43:16.882Z,99.99
2019-01-05T05:44:16.871Z,99.99
2019-01-05T05:45:16.863Z,99.99
2019-01-05T05:46:16.850Z,99.99
2019-01-05T05:47:16.841Z,99.99
2019-01-05T05:48:16.830Z,99.99
2019-01-05T05:49:16.818Z,99.99
2019-01-05T05:50:16.808Z,99.99
2019-01-05T05:51:16.800Z,99.99
2019-01-05T05:52:16.790Z,99.99
2019-01-05T05:53:16.777Z,99.99
2019-01-05T05:54:16.769Z,99.99
2019-01-05T05:55:16.755Z,99.99
2019-01-05T05:56:16.743Z,99.99
2019-01-05T05:57:16.734Z,99.99
2019-01-05T05:58:16.723Z,99.99
2019-01-05T05:59:16.712Z,99.99
2019-01-05T06:00:16.703Z,99.99
2019-01-05T06:01:16.695Z,99.99
2019-01-05T06:02:16.680Z,99.99
2019-01-05T06:03:16.668Z,99.99
2019-01-05T06:04:16.660Z,99.99
2019-01-05T06:05:16.652Z,99.99
2019-01-05T06:06:16.636Z,99.99
2019-01-05T06:07:16.629Z,99.99
2019-01-05T06:08:16.614Z,99.99
2019-01-05T06:09:16.603Z,99.99
2019-01-05T06:10:16.598Z,99.99
2019-01-05T06:11:16.584Z,99.99
2019-01-05T06:12:16.572Z,99.99
2019-01-05T06:13:16.561Z,99.99
2019-01-05T06:14:16.552Z,99.99
2019-01-05T06:15:16.540Z,99.99
2019-01-05T06:16:16.529Z,99.99
2019-01-05T06:17:16.521Z,99.99
2019-01-05T06:18:16.507Z,99.99
2019-01-05T06:19:16.496Z,99.99
2019-01-05T06:20:16.486Z,99.99
2019-01-05T06:21:16.477Z,99.99
2019-01-05T06:22:16.465Z,99.99
2019-01-05T06:23:16.456Z,99.99
2019-01-05T06:24:16.444Z,99.99
2019-01-05T06:25:16.435Z,99.99
2019-01-05T06:26:16.424Z,99.99
2019-01-05T06:27:16.413Z,99.99
2019-01-05T06:28:16.403Z,99.99
2019-01-05T06:29:16.394Z,99.99
2019-01-05T06:30:16.380Z,99.99
2019-01-05T06:31:16.370Z,99.99
2019-01-05T06:32:16.357Z,99.99
2019-01-05T06:33:17.079Z,99.99
2019-01-05T06:34:16.338Z,99.99
2019-01-05T06:35:16.328Z,99.99
2019-01-05T06:36:16.317Z,99.99
2019-01-05T06:37:16.306Z,99.99
2019-01-05T06:38:16.293Z,99.99
2019-01-05T06:39:16.286Z,99.99
2019-01-05T06:40:16.272Z,99.99
2019-01-05T06:41:16.267Z,99.99
2019-01-05T06:42:16.250Z,99.99
2019-01-05T06:43:16.239Z,99.99
2019-01-05T06:44:16.229Z,99.99
2019-01-05T06:45:16.222Z,99.99
2019-01-05T06:46:16.209Z,99.99
2019-01-05T06:47:16.200Z,99.99
2019-01-05T06:48:16.188Z,99.99
2019-01-05T06:49:16.184Z,99.99
2019-01-05T06:50:16.165Z,99.99
2019-01-05T06:51:16.158Z,99.99
2019-01-05T06:52:16.144Z,99.99
2019-01-05T06:53:16.136Z,99.99
2019-01-05T06:54:16.124Z,99.99
2019-01-05T06:55:16.113Z,99.99
2019-01-05T06:56:16.100Z,99.99
2019-01-05T06:57:16.089Z,99.99
2019-01-05T06:58:16.082Z,99.99
2019-01-05T06:59:16.072Z,99.99
2019-01-05T07:00:16.061Z,99.99
2019-01-05T07:01:16.049Z,99.99
2019-01-05T07:02:16.036Z,99.99
2019-01-05T07:03:16.029Z,99.99
2019-01-05T07:04:16.016Z,99.99
2019-01-05T07:05:16.005Z,99.99
2019-01-05T07:06:15.997Z,99.99
2019-01-05T07:07:15.985Z,99.99
2019-01-05T07:08:15.973Z,99.99
2019-01-05T07:09:15.962Z,99.99
2019-01-05T07:10:15.950Z,99.99
2019-01-05T07:11:15.946Z,99.99
2019-01-05T07:12:15.931Z,99.99
2019-01-05T07:13:15.919Z,99.99
2019-01-05T07:14:15.913Z,99.99
2019-01-05T07:15:15.897Z,99.99
2019-01-05T07:16:15.887Z,99.99
2019-01-05T07:17:15.877Z,99.99
2019-01-05T07:18:15.867Z,99.99
2019-01-05T07:19:15.856Z,99.99
2019-01-05T07:20:15.846Z,99.94
2019-01-05T07:21:15.835Z,99.99
2019-01-05T07:22:15.824Z,99.99
2019-01-05T07:23:15.812Z,99.99
2019-01-05T07:24:15.802Z,99.99
2019-01-05T07:25:15.795Z,99.99
2019-01-05T07:26:15.789Z,99.99
2019-01-05T07:27:15.771Z,99.99
2019-01-05T07:28:15.760Z,99.99
2019-01-05T07:29:15.752Z,99.99
2019-01-05T07:30:15.739Z,99.99
2019-01-05T07:31:15.733Z,99.99
2019-01-05T07:32:15.720Z,99.99
2019-01-05T07:33:15.711Z,99.99
2019-01-05T07:34:15.695Z,99.94
2019-01-05T07:35:15.684Z,99.94
2019-01-05T07:36:15.676Z,99.99
2019-01-05T07:37:15.666Z,99.73
2019-01-05T07:38:15.653Z,99.94
2019-01-05T07:39:15.643Z,99.99
2019-01-05T07:40:15.630Z,99.52
2019-01-05T07:41:15.625Z,99.94
2019-01-05T07:42:15.613Z,99.94
2019-01-05T07:43:15.608Z,99.63
2019-01-05T07:44:15.589Z,99.94
2019-01-05T07:45:15.577Z,99.73
2019-01-05T07:46:15.567Z,99.84
2019-01-05T07:47:15.560Z,99.99
2019-01-05T07:48:15.544Z,99.99
2019-01-05T07:49:15.534Z,99.99
2019-01-05T07:50:15.523Z,99.99
2019-01-05T07:51:15.512Z,99.99
2019-01-05T07:52:15.501Z,99.63
2019-01-05T07:53:15.490Z,99.52
2019-01-05T07:54:15.480Z,99.63
2019-01-05T07:55:15.469Z,99.63
2019-01-05T07:56:15.462Z,99.52
2019-01-05T07:57:15.448Z,99.32
2019-01-05T07:58:15.437Z,99.63
2019-01-05T07:59:15.429Z,99.73
2019-01-05T08:00:15.417Z,99.94
2019-01-05T08:01:15.406Z,99.73
2019-01-05T08:02:15.396Z,99.11
2019-01-05T08:03:15.384Z,99.11
2019-01-05T08:04:15.413Z,99.01
2019-01-05T08:05:15.364Z,98.60
2019-01-05T08:06:16.053Z,98.70
2019-01-05T08:07:15.346Z,99.32
2019-01-05T08:08:15.344Z,98.80
2019-01-05T08:09:15.326Z,99.01
2019-01-05T08:10:15.313Z,98.91
2019-01-05T08:11:15.302Z,98.39
2019-01-05T08:12:15.296Z,98.50
2019-01-05T08:13:15.280Z,98.91
2019-01-05T08:14:15.282Z,98.55
2019-01-05T08:15:15.263Z,98.60
2019-01-05T08:16:15.251Z,98.39
2019-01-05T08:17:15.245Z,98.39
2019-01-05T08:18:15.242Z,97.88
2019-01-05T08:19:15.221Z,98.14
2019-01-05T08:20:15.215Z,98.14
2019-01-05T08:21:15.198Z,98.35
2019-01-05T08:22:15.198Z,98.19
2019-01-05T08:23:15.176Z,97.56
2019-01-05T08:24:15.164Z,97.52
2019-01-05T08:25:15.178Z,97.31
2019-01-05T08:26:15.139Z,97.42
2019-01-05T08:27:15.126Z,97.31
2019-01-05T08:28:15.118Z,96.70
2019-01-05T08:29:15.106Z,96.70
2019-01-05T08:30:15.095Z,96.59
2019-01-05T08:31:15.085Z,96.80
2019-01-05T08:32:15.073Z,96.28
2019-01-05T08:33:15.063Z,96.49
2019-01-05T08:34:15.052Z,96.66
2019-01-05T08:35:15.041Z,96.24
2019-01-05T08:36:15.030Z,96.45
2019-01-05T08:37:15.022Z,96.24
2019-01-05T08:38:15.030Z,96.55
2019-01-05T08:39:15.008Z,96.55
2019-01-05T08:40:15.007Z,96.14
2019-01-05T08:41:14.980Z,96.55
2019-01-05T08:42:14.983Z,96.24
2019-01-05T08:43:14.967Z,96.03
2019-01-05T08:44:14.946Z,96.24
2019-01-05T08:45:14.934Z,96.03
2019-01-05T08:46:14.932Z,96.34
2019-01-05T08:47:14.914Z,96.45
2019-01-05T08:48:14.903Z,95.21
2019-01-05T08:49:14.891Z,94.90
2019-01-05T08:50:14.881Z,96.24
2019-01-05T08:51:14.869Z,96.14
2019-01-05T08:52:14.859Z,95.31
2019-01-05T08:53:14.853Z,95.42
2019-01-05T08:54:14.838Z,96.45
2019-01-05T08:55:16.289Z,96.34
2019-01-05T08:56:14.824Z,95.62
2019-01-05T08:57:14.809Z,95.42
2019-01-05T08:58:14.799Z,96.14
2019-01-05T08:59:14.798Z,96.14
2019-01-05T09:00:14.776Z,95.52
2019-01-05T09:01:14.765Z,96.14
2019-01-05T09:02:14.769Z,96.03
2019-01-05T09:03:14.749Z,95.73
2019-01-05T09:04:14.733Z,94.49
2019-01-05T09:05:14.728Z,95.21
2019-01-05T09:06:14.712Z,95.10
2019-01-05T09:07:14.704Z,94.90
2019-01-05T09:08:14.693Z,94.90
2019-01-05T09:09:14.679Z,94.90
2019-01-05T09:10:14.678Z,94.80
2019-01-05T09:11:14.674Z,94.80
2019-01-05T09:12:14.652Z,94.90
2019-01-05T09:13:14.640Z,94.80
2019-01-05T09:14:14.629Z,94.18
2019-01-05T09:15:14.620Z,94.08
2019-01-05T09:16:14.609Z,93.87
2019-01-05T09:17:14.609Z,93.87
2019-01-05T09:18:14.587Z,93.41
2019-01-05T09:19:14.576Z,93.41
2019-01-05T09:20:14.567Z,93.31
2019-01-05T09:21:14.559Z,93.31
2019-01-05T09:22:14.549Z,93.41
2019-01-05T09:23:14.545Z,92.84
2019-01-05T09:24:14.531Z,92.69
2019-01-05T09:25:14.511Z,92.69
2019-01-05T09:26:14.504Z,91.62
2019-01-05T09:27:20.498Z,91.42
2019-01-05T09:28:15.478Z,91.11
2019-01-05T09:29:14.465Z,91.72
2019-01-05T09:30:14.463Z,91.62
2019-01-05T09:31:14.448Z,90.80
2019-01-05T09:32:14.439Z,91.52
2019-01-05T09:33:14.430Z,91.00
2019-01-05T09:34:14.412Z,91.00
2019-01-05T09:35:14.401Z,89.97
2019-01-05T09:36:14.390Z,91.21
2019-01-05T09:37:14.380Z,91.00
2019-01-05T09:38:14.373Z,90.49
2019-01-05T09:39:14.361Z,90.69
2019-01-05T09:40:14.352Z,90.49
2019-01-05T09:41:14.348Z,90.28
2019-01-05T09:42:14.338Z,90.22
2019-01-05T09:43:14.329Z,91.05
2019-01-05T09:44:14.311Z,91.36
2019-01-05T09:45:14.300Z,91.36
2019-01-05T09:46:14.289Z,91.00
2019-01-05T09:47:14.276Z,90.34
2019-01-05T09:48:14.264Z,90.09
2019-01-05T09:49:14.254Z,89.73
2019-01-05T09:50:14.242Z,89.73
2019-01-05T09:51:14.232Z,89.28
2019-01-05T09:52:14.220Z,88.90
2019-01-05T09:53:14.206Z,89.58
2019-01-05T09:54:14.196Z,88.86
2019-01-05T09:55:14.237Z,88.00
2019-01-05T09:56:14.180Z,87.90
2019-01-05T09:57:14.166Z,87.07
2019-01-05T09:58:14.156Z,86.87
2019-01-05T09:59:14.147Z,87.18
2019-01-05T10:00:14.138Z,88.10
2019-01-05T10:01:14.124Z,88.35
2019-01-05T10:02:14.107Z,89.31
2019-01-05T10:03:14.099Z,89.73
2019-01-05T10:04:14.087Z,89.31
2019-01-05T10:05:14.076Z,89.94
2019-01-05T10:06:14.068Z,89.11
2019-01-05T10:07:14.053Z,89.36
2019-01-05T10:08:14.043Z,90.08
2019-01-05T10:09:14.033Z,89.52
2019-01-05T10:10:14.022Z,90.08
2019-01-05T10:11:14.011Z,90.28
2019-01-05T10:12:14.000Z,89.56
2019-01-05T10:13:13.989Z,89.25
2019-01-05T10:14:13.981Z,89.36
2019-01-05T10:15:13.970Z,89.56
2019-01-05T10:16:13.956Z,88.90
2019-01-05T10:17:13.944Z,88.29
2019-01-05T10:18:13.933Z,88.90
2019-01-05T10:19:13.930Z,88.39
2019-01-05T10:20:13.916Z,88.86
2019-01-05T10:21:13.905Z,88.86
2019-01-05T10:22:13.890Z,88.08
2019-01-05T10:23:13.885Z,87.87
2019-01-05T10:24:13.868Z,87.63
2019-01-05T10:25:13.863Z,87.59
2019-01-05T10:26:13.847Z,86.56
2019-01-05T10:27:13.836Z,85.74
2019-01-05T10:28:13.827Z,86.97
2019-01-05T10:29:13.814Z,85.53
2019-01-05T10:30:13.806Z,85.12
2019-01-05T10:31:13.794Z,85.94
2019-01-05T10:32:13.784Z,85.63
2019-01-05T10:33:13.777Z,85.84
2019-01-05T10:34:13.760Z,86.15
2019-01-05T10:35:13.748Z,85.94
2019-01-05T10:36:13.742Z,86.15
2019-01-05T10:37:13.730Z,86.66
2019-01-05T10:38:13.717Z,86.08
2019-01-05T10:39:13.707Z,87.12
2019-01-05T10:40:13.906Z,87.32
2019-01-05T10:41:13.684Z,87.32
2019-01-05T10:42:13.782Z,87.77
2019-01-05T10:43:13.664Z,87.36
2019-01-05T10:44:13.651Z,87.15
2019-01-05T10:45:13.642Z,87.36
2019-01-05T10:46:13.629Z,88.08
2019-01-05T10:47:13.620Z,88.18
2019-01-05T10:48:13.608Z,87.40
2019-01-05T10:49:13.599Z,87.51
2019-01-05T10:50:13.590Z,87.46
2019-01-05T10:51:13.920Z,88.49
2019-01-05T10:52:13.566Z,88.39
2019-01-05T10:53:13.554Z,88.08
2019-01-05T10:54:13.545Z,87.46
2019-01-05T10:55:13.535Z,88.29
2019-01-05T10:56:13.522Z,87.98
2019-01-05T10:57:13.514Z,88.08
2019-01-05T10:58:13.499Z,87.36
2019-01-05T10:59:13.491Z,88.08
2019-01-05T11:00:13.519Z,87.46
2019-01-05T11:01:13.469Z,88.29
2019-01-05T11:02:13.457Z,87.98
2019-01-05T11:03:13.447Z,87.46
2019-01-05T11:04:13.435Z,88.18
2019-01-05T11:05:13.423Z,87.26
2019-01-05T11:06:13.416Z,87.26
2019-01-05T11:07:13.405Z,87.57
2019-01-05T11:08:13.390Z,87.63
2019-01-05T11:09:13.385Z,87.57
2019-01-05T11:10:13.369Z,87.26
2019-01-05T11:11:13.357Z,87.57
2019-01-05T11:12:13.347Z,88.08
2019-01-05T11:13:13.338Z,87.87
2019-01-05T11:14:13.326Z,88.18
2019-01-05T11:15:13.315Z,87.40
2019-01-05T11:16:13.306Z,88.23
2019-01-05T11:17:13.304Z,87.71
2019-01-05T11:18:13.285Z,88.02
2019-01-05T11:19:13.274Z,88.12
2019-01-05T11:20:13.261Z,87.81
2019-01-05T11:21:13.255Z,87.60
2019-01-05T11:22:13.245Z,87.40
2019-01-05T11:23:13.230Z,88.12
2019-01-05T11:24:13.221Z,88.43
2019-01-05T11:25:13.209Z,88.43
2019-01-05T11:26:13.197Z,87.71
2019-01-05T11:27:13.189Z,88.53
2019-01-05T11:28:13.177Z,88.23
2019-01-05T11:29:13.165Z,88.43
2019-01-05T11:30:13.163Z,87.51
2019-01-05T11:31:13.145Z,87.60
2019-01-05T11:32:13.134Z,88.02
2019-01-05T11:33:13.125Z,88.12
2019-01-05T11:34:13.113Z,87.60
2019-01-05T11:35:13.359Z,87.26
2019-01-05T11:36:13.091Z,87.98
2019-01-05T11:37:13.084Z,87.26
2019-01-05T11:38:13.072Z,87.46
2019-01-05T11:39:13.058Z,87.26
2019-01-05T11:40:13.048Z,87.01
2019-01-05T11:41:13.038Z,85.98
2019-01-05T11:42:13.029Z,87.12
2019-01-05T11:43:13.025Z,85.88
2019-01-05T11:44:13.005Z,85.71
2019-01-05T11:45:12.993Z,87.05
2019-01-05T11:46:12.993Z,86.19
2019-01-05T11:47:12.973Z,87.12
2019-01-05T11:48:12.962Z,87.15
2019-01-05T11:49:13.004Z,87.22
2019-01-05T11:50:12.940Z,86.80
2019-01-05T11:51:12.933Z,86.29
2019-01-05T11:52:12.926Z,87.01
2019-01-05T11:53:12.910Z,87.01
2019-01-05T11:54:12.898Z,87.12
2019-01-05T11:55:12.888Z,85.78
2019-01-05T11:56:12.888Z,85.68
2019-01-05T11:57:12.865Z,85.26
2019-01-05T11:58:12.854Z,85.26
2019-01-05T11:59:12.846Z,85.41
2019-01-05T12:00:12.841Z,85.57
2019-01-05T12:01:12.825Z,85.16
2019-01-05T12:02:12.816Z,85.61
2019-01-05T12:03:12.811Z,86.08
2019-01-05T12:04:12.801Z,85.57
2019-01-05T12:05:12.779Z,86.40
2019-01-05T12:06:12.773Z,85.57
2019-01-05T12:07:12.761Z,85.47
2019-01-05T12:08:12.758Z,85.57
2019-01-05T12:09:12.751Z,85.26
2019-01-05T12:10:12.738Z,85.26
2019-01-05T12:11:12.724Z,85.61
2019-01-05T12:12:12.714Z,85.41
2019-01-05T12:13:12.697Z,84.64
2019-01-05T12:14:12.685Z,85.16
2019-01-05T12:15:12.674Z,85.26
2019-01-05T12:16:12.677Z,85.47
2019-01-05T12:17:12.655Z,85.71
2019-01-05T12:18:12.651Z,85.20
2019-01-05T12:19:12.633Z,85.57
2019-01-05T12:20:12.622Z,85.30
2019-01-05T12:21:12.612Z,85.57
2019-01-05T12:22:12.599Z,85.71
2019-01-05T12:23:12.705Z,85.36
2019-01-05T12:24:12.585Z,85.30
2019-01-05T12:25:12.570Z,85.71
2019-01-05T12:26:12.558Z,85.71
2019-01-05T12:27:12.553Z,85.10
2019-01-05T12:28:12.545Z,85.61
2019-01-05T12:29:12.530Z,85.41
2019-01-05T12:30:12.525Z,85.61
2019-01-05T12:31:12.505Z,85.20
2019-01-05T12:32:12.495Z,85.30
2019-01-05T12:33:12.482Z,85.61
2019-01-05T12:34:12.472Z,85.30
2019-01-05T12:35:12.462Z,85.71
2019-01-05T12:36:12.450Z,86.74
2019-01-05T12:37:12.441Z,86.23
2019-01-05T12:38:12.431Z,86.13
2019-01-05T12:39:12.419Z,86.95
2019-01-05T12:40:12.409Z,86.13
2019-01-05T12:41:12.400Z,85.86
2019-01-05T12:42:12.386Z,85.96
2019-01-05T12:43:12.379Z,85.14
2019-01-05T12:44:12.365Z,85.86
2019-01-05T12:45:12.354Z,85.96
2019-01-05T12:46:12.344Z,85.65
2019-01-05T12:47:12.340Z,85.75
2019-01-05T12:48:12.323Z,86.37
2019-01-05T12:49:12.311Z,86.06
2019-01-05T12:50:12.309Z,86.37
2019-01-05T12:51:12.290Z,86.79
2019-01-05T12:52:12.279Z,87.30